Time;durP1;ratioP1;P1;durP2;ratioP2;P2;SDS_P1;SDS_P2;PMS_P1;PMS_P2;Temp;Humidity;BMP_temperature;BMP_pressure;BME280_temperature;BME280_humidity;BME280_pressure;Samples;Min_cycle;Max_cycle;Signal;HPM_P1;HPM_P2
2020/12/11 00:01:30;;;;;;;19.90;11.37;;;2.50;99.90;;;;;;4880298;29;20234;-92
2020/12/11 00:03:56;;;;;;;20.57;11.23;;;1.10;99.90;;;;;;4864191;29;20182;-93
2020/12/11 00:06:22;;;;;;;22.03;10.70;;;2.00;99.90;;;;;;4848635;29;20258;-92
2020/12/11 00:08:48;;;;;;;19.13;11.37;;;1.70;99.90;;;;;;4880632;29;20205;-94
2020/12/11 00:11:14;;;;;;;19.40;10.67;;;2.50;99.90;;;;;;4864325;29;20287;-93
2020/12/11 00:13:40;;;;;;;17.67;10.27;;;1.60;99.90;;;;;;4863586;29;20268;-94
2020/12/11 00:16:06;;;;;;;16.40;9.80;;;1.10;99.90;;;;;;4880262;29;20184;-92
2020/12/11 00:18:31;;;;;;;20.07;11.77;;;1.80;99.90;;;;;;4880053;29;20189;-93
2020/12/11 00:21:00;;;;;;;23.73;11.87;;;2.40;99.90;;;;;;4880531;29;20716;-93
2020/12/11 00:23:26;;;;;;;17.37;9.83;;;2.40;99.90;;;;;;4880146;29;20192;-93
2020/12/11 00:26:01;;;;;;;20.90;10.23;;;1.00;99.90;;;;;;4863204;29;20193;-93
2020/12/11 00:28:30;;;;;;;18.67;10.07;;;1.10;99.90;;;;;;4863521;29;20182;-94
2020/12/11 00:30:56;;;;;;;22.03;11.50;;;2.40;99.90;;;;;;4880425;29;20185;-92
2020/12/11 00:33:23;;;;;;;20.03;10.73;;;1.00;99.90;;;;;;4864642;29;20666;-93
2020/12/11 00:35:49;;;;;;;17.27;10.93;;;1.10;99.90;;;;;;4863365;29;20186;-93
2020/12/11 00:38:15;;;;;;;18.97;10.43;;;2.30;99.90;;;;;;4864117;29;20189;-94
2020/12/11 00:40:40;;;;;;;19.37;11.13;;;2.30;99.90;;;;;;4866898;29;20194;-94
2020/12/11 00:43:06;;;;;;;18.33;10.13;;;1.50;99.90;;;;;;4884403;29;20647;-92
2020/12/11 00:45:32;;;;;;;19.10;10.17;;;1.00;99.90;;;;;;4881521;29;20190;-92
2020/12/11 00:47:58;;;;;;;17.33;9.43;;;2.50;99.90;;;;;;4882510;29;20639;-93
2020/12/11 00:50:24;;;;;;;18.07;10.37;;;1.70;99.90;;;;;;4881489;29;20217;-94
2020/12/11 00:52:49;;;;;;;21.33;10.27;;;3.10;99.90;;;;;;4881988;29;20220;-92
2020/12/11 00:55:21;;;;;;;20.47;10.10;;;1.30;99.90;;;;;;4849885;29;20196;-93
2020/12/11 00:57:47;;;;;;;22.00;10.90;;;1.00;99.90;;;;;;4882247;29;20177;-93
2020/12/11 01:00:15;;;;;;;26.33;11.77;;;1.00;99.90;;;;;;4854002;29;20613;-93
2020/12/11 01:02:41;;;;;;;18.10;10.10;;;2.10;99.90;;;;;;4868050;29;20182;-92
2020/12/11 01:05:07;;;;;;;16.93;10.27;;;2.60;99.90;;;;;;4885621;29;20516;-92
2020/12/11 01:07:33;;;;;;;17.00;10.03;;;2.50;99.90;;;;;;4877554;29;20190;-93
2020/12/11 01:09:59;;;;;;;18.17;11.10;;;2.50;99.90;;;;;;4897341;29;20225;-93
2020/12/11 01:12:25;;;;;;;18.10;10.27;;;1.00;99.90;;;;;;4896907;29;20170;-95
2020/12/11 01:14:51;;;;;;;17.83;10.13;;;1.00;99.90;;;;;;4837842;29;20217;-93
2020/12/11 01:17:16;;;;;;;19.57;10.67;;;2.20;99.90;;;;;;4867561;29;20184;-95
2020/12/11 01:19:43;;;;;;;17.97;10.60;;;1.10;99.90;;;;;;4882716;29;20200;-94
2020/12/11 01:22:09;;;;;;;20.13;11.53;;;2.20;99.90;;;;;;4873677;29;20184;-92
2020/12/11 01:24:35;;;;;;;20.57;11.97;;;1.80;99.90;;;;;;4872218;29;20213;-94
2020/12/11 01:27:00;;;;;;;21.90;11.23;;;1.00;99.90;;;;;;4868553;29;20241;-95
2020/12/11 01:29:26;;;;;;;17.33;10.33;;;1.00;99.90;;;;;;4866126;29;20225;-92
2020/12/11 01:31:56;;;;;;;20.10;11.13;;;1.00;99.90;;;;;;4865138;29;20624;-92
2020/12/11 01:34:21;;;;;;;21.20;12.40;;;1.40;99.90;;;;;;4884366;29;20182;-92
2020/12/11 01:36:47;;;;;;;19.00;11.20;;;1.40;99.90;;;;;;4881107;29;20200;-92
2020/12/11 01:39:13;;;;;;;19.47;10.57;;;1.00;99.90;;;;;;4848912;29;20197;-93
2020/12/11 01:41:38;;;;;;;20.43;10.80;;;2.50;99.90;;;;;;4863554;29;20218;-92
2020/12/11 01:44:08;;;;;;;21.73;11.00;;;1.00;99.90;;;;;;4881770;29;20645;-93
2020/12/11 01:46:43;;;;;;;19.97;11.93;;;1.20;99.90;;;;;;4863045;29;20245;-92
2020/12/11 01:49:11;;;;;;;21.47;11.33;;;2.20;99.90;;;;;;4882565;29;20199;-91
2020/12/11 01:51:37;;;;;;;26.17;13.60;;;1.00;99.90;;;;;;4882359;29;20223;-93
2020/12/11 01:54:03;;;;;;;23.43;13.00;;;1.50;99.90;;;;;;4882871;29;20220;-93
2020/12/11 01:56:39;;;;;;;25.53;13.30;;;1.90;99.90;;;;;;4882745;29;20193;-93
2020/12/11 01:59:10;;;;;;;64.63;32.43;;;2.20;99.90;;;;;;4882855;29;20268;-93
2020/12/11 02:01:35;;;;;;;25.50;13.60;;;1.00;99.90;;;;;;4882554;29;20228;-91
2020/12/11 02:04:04;;;;;;;22.47;12.03;;;1.10;99.90;;;;;;4866066;29;20703;-92
2020/12/11 02:06:30;;;;;;;20.90;13.63;;;2.40;99.90;;;;;;4865816;29;20200;-93
2020/12/11 02:08:56;;;;;;;23.37;12.63;;;1.00;99.90;;;;;;4865909;29;20209;-92
2020/12/11 02:11:23;;;;;;;20.90;11.60;;;3.00;99.90;;;;;;4882419;29;20223;-92
2020/12/11 02:13:49;;;;;;;21.53;11.30;;;1.90;99.90;;;;;;4850204;29;20193;-92
2020/12/11 02:16:23;;;;;;;24.57;12.40;;;1.60;99.90;;;;;;4882368;29;20190;-93
2020/12/11 02:18:49;;;;;;;18.77;10.73;;;1.00;99.90;;;;;;4882210;29;20204;-93
2020/12/11 02:21:15;;;;;;;21.43;11.83;;;2.30;99.90;;;;;;4882506;29;20186;-93
2020/12/11 02:23:45;;;;;;;21.60;11.93;;;1.60;99.90;;;;;;4865426;29;20182;-92
2020/12/11 02:26:13;;;;;;;23.27;11.33;;;1.00;99.90;;;;;;4865558;29;20186;-93
2020/12/11 02:28:39;;;;;;;22.07;11.27;;;2.00;99.90;;;;;;4881806;29;20184;-93
2020/12/11 02:31:05;;;;;;;25.97;14.10;;;1.80;99.90;;;;;;4865605;29;20213;-92
2020/12/11 02:33:31;;;;;;;24.47;13.93;;;2.60;99.90;;;;;;4865306;29;20230;-92
2020/12/11 02:35:56;;;;;;;22.00;12.20;;;2.00;99.90;;;;;;4865292;29;20530;-92
2020/12/11 02:38:23;;;;;;;19.73;11.07;;;1.00;99.90;;;;;;4882191;29;20683;-92
2020/12/11 02:40:55;;;;;;;21.83;11.83;;;2.70;99.90;;;;;;4865079;29;20215;-92
2020/12/11 02:43:21;;;;;;;22.07;11.47;;;2.60;99.90;;;;;;4882416;29;20682;-93
2020/12/11 02:45:49;;;;;;;20.30;11.77;;;1.40;99.90;;;;;;4881505;29;20257;-93
2020/12/11 02:48:15;;;;;;;20.60;10.67;;;2.30;99.90;;;;;;4865546;29;20185;-93
2020/12/11 02:50:41;;;;;;;20.60;11.50;;;1.10;99.90;;;;;;4881604;29;20218;-93
2020/12/11 02:53:07;;;;;;;16.17;9.47;;;3.00;99.90;;;;;;4865140;29;20193;-92
2020/12/11 02:55:35;;;;;;;19.20;10.43;;;1.10;99.90;;;;;;4881529;29;20195;-91
2020/12/11 02:58:01;;;;;;;20.57;10.40;;;2.50;99.90;;;;;;4864129;29;20198;-91
2020/12/11 03:00:27;;;;;;;20.33;11.30;;;3.20;99.90;;;;;;4880831;29;20519;-92
2020/12/11 03:02:52;;;;;;;19.27;10.50;;;2.60;99.90;;;;;;4881187;29;20631;-91
2020/12/11 03:05:18;;;;;;;19.23;10.57;;;2.40;99.90;;;;;;4864869;29;20540;-93
2020/12/11 03:07:44;;;;;;;23.37;10.77;;;1.70;99.90;;;;;;4881059;29;20213;-93
2020/12/11 03:10:09;;;;;;;24.23;11.63;;;1.80;99.90;;;;;;4881282;29;20219;-94
2020/12/11 03:12:35;;;;;;;21.63;11.53;;;1.00;99.90;;;;;;4881256;29;20198;-94
2020/12/11 03:15:01;;;;;;;22.47;12.97;;;2.60;99.90;;;;;;4881440;29;20217;-93
2020/12/11 03:17:27;;;;;;;22.47;11.53;;;3.10;99.90;;;;;;4881818;29;20720;-94
2020/12/11 03:19:52;;;;;;;20.07;10.93;;;1.60;99.90;;;;;;4864809;29;20228;-94
2020/12/11 03:22:18;;;;;;;19.87;10.13;;;2.30;99.90;;;;;;4865000;29;20240;-93
2020/12/11 03:24:43;;;;;;;26.17;13.03;;;3.00;99.90;;;;;;4881105;29;20214;-94
2020/12/11 03:27:10;;;;;;;29.30;15.30;;;2.90;99.90;;;;;;4881239;29;20652;-94
2020/12/11 03:29:35;;;;;;;22.87;12.30;;;2.30;99.90;;;;;;4849463;29;20605;-94
2020/12/11 03:32:01;;;;;;;25.43;12.77;;;1.00;99.90;;;;;;4864363;29;20208;-93
2020/12/11 03:34:27;;;;;;;24.40;11.37;;;2.20;99.90;;;;;;4864416;29;20196;-93
2020/12/11 03:36:52;;;;;;;29.60;14.63;;;1.10;99.90;;;;;;4880974;29;20624;-93
2020/12/11 03:39:18;;;;;;;27.70;12.80;;;2.40;99.90;;;;;;4864665;29;20294;-95
2020/12/11 03:41:48;;;;;;;24.67;13.40;;;1.30;99.90;;;;;;4864395;29;20257;-93
2020/12/11 03:44:14;;;;;;;30.53;16.00;;;2.90;99.90;;;;;;4881194;29;20204;-95
2020/12/11 03:46:39;;;;;;;25.17;12.43;;;2.40;99.90;;;;;;4864786;29;20244;-93
2020/12/11 03:49:05;;;;;;;21.80;10.90;;;3.00;99.90;;;;;;4880713;29;20245;-93
2020/12/11 03:51:30;;;;;;;21.97;11.20;;;1.10;99.90;;;;;;4863837;29;20224;-94
2020/12/11 03:53:56;;;;;;;23.23;11.87;;;2.30;99.90;;;;;;4880548;29;20193;-92
2020/12/11 03:56:22;;;;;;;23.20;11.53;;;1.50;99.90;;;;;;4864247;29;20639;-92
2020/12/11 03:58:47;;;;;;;21.47;11.67;;;1.40;99.90;;;;;;4863947;29;20263;-93
2020/12/11 04:01:14;;;;;;;20.60;11.83;;;1.30;99.90;;;;;;4880566;29;20189;-92
2020/12/11 04:03:41;;;;;;;22.83;10.90;;;3.20;99.90;;;;;;4880447;29;20197;-93
2020/12/11 04:06:11;;;;;;;22.27;11.17;;;1.10;99.90;;;;;;4880130;29;20237;-92
2020/12/11 04:08:38;;;;;;;21.67;10.63;;;1.10;99.90;;;;;;4864928;29;20186;-96
2020/12/11 04:11:05;;;;;;;26.97;12.43;;;1.50;99.90;;;;;;4885087;29;20755;-96
2020/12/11 04:13:32;;;;;;;25.87;13.27;;;1.10;99.90;;;;;;4869806;29;20187;-95
2020/12/11 04:15:57;;;;;;;24.87;12.77;;;2.60;99.90;;;;;;4882617;29;20266;-96
2020/12/11 04:18:23;;;;;;;24.67;13.00;;;1.50;99.90;;;;;;4888784;29;20219;-96
2020/12/11 04:20:49;;;;;;;27.33;13.17;;;1.10;99.90;;;;;;4850125;29;20188;-92
2020/12/11 04:23:14;;;;;;;28.13;13.60;;;2.50;99.90;;;;;;4848724;29;20276;-94
2020/12/11 04:25:40;;;;;;;31.70;16.73;;;2.30;99.90;;;;;;4864570;29;20665;-96
2020/12/11 04:28:05;;;;;;;25.73;14.90;;;1.10;99.90;;;;;;4865474;29;20196;-94
2020/12/11 04:30:31;;;;;;;26.67;14.17;;;1.10;99.90;;;;;;4863488;29;20296;-92
2020/12/11 04:32:56;;;;;;;28.60;13.10;;;1.10;99.90;;;;;;4863497;29;20198;-91
2020/12/11 04:35:22;;;;;;;22.80;11.80;;;3.40;99.90;;;;;;4864807;29;20579;-92
2020/12/11 04:37:48;;;;;;;33.60;14.03;;;1.40;99.90;;;;;;4880444;29;20214;-94
2020/12/11 04:40:18;;;;;;;28.63;13.23;;;1.10;99.90;;;;;;4863662;29;20201;-93
2020/12/11 04:42:47;;;;;;;34.30;13.70;;;2.40;99.90;;;;;;4880131;29;20199;-93
2020/12/11 04:45:13;;;;;;;21.13;11.03;;;2.70;99.90;;;;;;4879983;29;20189;-93
2020/12/11 04:47:46;;;;;;;23.77;11.77;;;2.50;99.90;;;;;;4863250;29;20240;-93
2020/12/11 04:50:17;;;;;;;24.00;10.70;;;1.10;99.90;;;;;;4878448;29;20575;-91
2020/12/11 04:52:44;;;;;;;29.93;14.10;;;3.20;99.90;;;;;;4879359;29;20262;-92
2020/12/11 04:55:20;;;;;;;29.87;13.70;;;1.10;99.90;;;;;;4862643;29;20194;-91
2020/12/11 04:57:51;;;;;;;35.17;16.03;;;2.40;99.90;;;;;;4862932;29;20170;-90
2020/12/11 05:00:18;;;;;;;76.57;32.00;;;1.10;99.90;;;;;;4881055;29;20209;-93
2020/12/11 05:02:45;;;;;;;43.63;18.37;;;1.10;99.90;;;;;;4880815;29;20192;-94
2020/12/11 05:05:12;;;;;;;28.70;13.77;;;1.10;99.90;;;;;;4891126;29;20204;-95
2020/12/11 05:07:38;;;;;;;25.10;12.03;;;1.90;99.90;;;;;;4870853;29;20220;-88
2020/12/11 05:10:06;;;;;;;28.37;13.53;;;2.50;99.90;;;;;;4861098;29;20224;-84
2020/12/11 05:12:33;;;;;;;29.67;14.67;;;3.10;99.90;;;;;;4868199;29;20203;-88
2020/12/11 05:15:00;;;;;;;33.07;15.97;;;3.30;99.90;;;;;;4875482;29;20211;-89
2020/12/11 05:17:34;;;;;;;29.50;14.23;;;2.40;99.90;;;;;;4873827;29;20186;-88
2020/12/11 05:20:00;;;;;;;26.20;13.80;;;1.30;99.90;;;;;;4891068;29;20189;-92
2020/12/11 05:22:31;;;;;;;28.50;13.47;;;3.20;99.90;;;;;;4883917;29;20183;-93
2020/12/11 05:24:57;;;;;;;32.40;14.80;;;3.70;99.90;;;;;;4884674;29;20170;-93
2020/12/11 05:27:31;;;;;;;28.80;14.33;;;3.30;99.90;;;;;;4892884;29;20192;-89
2020/12/11 05:30:18;;;;;;;25.67;13.33;;;2.80;99.90;;;;;;4885266;29;20202;-89
2020/12/11 05:32:49;;;;;;;30.27;14.03;;;2.80;99.90;;;;;;4877454;29;20205;-89
2020/12/11 05:35:26;;;;;;;33.87;14.20;;;1.20;99.90;;;;;;4877166;29;20196;-88
2020/12/11 05:38:03;;;;;;;30.43;15.03;;;1.20;99.90;;;;;;4882205;29;20164;-94
2020/12/11 05:40:41;;;;;;;31.70;13.67;;;1.20;99.90;;;;;;4883123;29;20172;-94
2020/12/11 05:43:15;;;;;;;34.43;15.07;;;1.20;99.90;;;;;;4881384;29;20174;-93
2020/12/11 05:45:54;;;;;;;28.70;14.40;;;1.40;99.90;;;;;;4881255;29;20190;-92
2020/12/11 05:48:35;;;;;;;33.10;15.27;;;1.20;99.90;;;;;;4882323;29;20230;-93
2020/12/11 05:51:12;;;;;;;34.90;15.27;;;2.80;99.90;;;;;;4882304;29;20189;-96
2020/12/11 05:53:38;;;;;;;33.07;15.57;;;1.20;99.90;;;;;;4865418;29;20253;-93
2020/12/11 05:56:06;;;;;;;33.63;16.93;;;3.00;99.90;;;;;;4848657;29;20209;-93
2020/12/11 05:58:33;;;;;;;40.83;17.23;;;2.90;99.90;;;;;;4865353;29;20198;-93
2020/12/11 06:00:59;;;;;;;37.63;18.00;;;2.20;99.90;;;;;;4881082;29;20380;-95
2020/12/11 06:03:26;;;;;;;33.50;15.60;;;2.70;99.90;;;;;;4881615;29;20303;-94
2020/12/11 06:05:56;;;;;;;32.50;14.93;;;2.10;99.90;;;;;;4864676;29;20201;-92
2020/12/11 06:08:26;;;;;;;30.70;15.53;;;1.10;99.90;;;;;;4864465;29;20186;-92
2020/12/11 06:10:52;;;;;;;37.00;15.57;;;1.10;99.90;;;;;;4880256;29;20690;-92
2020/12/11 06:13:38;;;;;;;42.40;18.67;;;2.70;99.90;;;;;;4863836;29;20197;-91
2020/12/11 06:16:05;;;;;;;45.90;21.07;;;1.80;99.90;;;;;;4864136;29;20273;-93
2020/12/11 06:18:34;;;;;;;39.33;18.47;;;3.30;99.90;;;;;;4881532;29;20178;-91
2020/12/11 06:21:01;;;;;;;48.63;21.83;;;2.10;99.90;;;;;;4862453;29;20221;-91
2020/12/11 06:23:29;;;;;;;35.33;17.30;;;2.40;99.90;;;;;;4846764;29;20197;-92
2020/12/11 06:26:03;;;;;;;36.80;18.20;;;3.00;99.90;;;;;;4880214;29;20189;-91
2020/12/11 06:28:34;;;;;;;30.13;14.40;;;1.20;99.90;;;;;;4882733;29;20178;-92
2020/12/11 06:31:01;;;;;;;31.60;16.43;;;2.40;99.90;;;;;;4864243;29;20208;-90
2020/12/11 06:33:30;;;;;;;30.40;15.57;;;2.70;99.90;;;;;;4879698;29;20178;-90
2020/12/11 06:35:57;;;;;;;26.53;13.00;;;2.90;99.90;;;;;;4879380;29;20202;-89
2020/12/11 06:38:42;;;;;;;27.20;13.20;;;1.80;99.90;;;;;;4863118;29;20556;-90
2020/12/11 06:41:09;;;;;;;30.73;13.53;;;1.10;99.90;;;;;;4877831;29;20170;-90
2020/12/11 06:43:45;;;;;;;33.47;15.60;;;2.30;99.90;;;;;;4879823;29;20189;-88
2020/12/11 06:46:21;;;;;;;28.17;13.10;;;0.40;99.90;;;;;;4862734;29;20387;-88
2020/12/11 06:49:14;;;;;;;30.87;11.97;;;1.10;99.90;;;;;;4879984;29;20219;-90
2020/12/11 06:51:46;;;;;;;26.60;12.27;;;1.10;99.90;;;;;;4878286;29;20206;-90
2020/12/11 06:54:12;;;;;;;24.53;11.93;;;1.30;99.90;;;;;;4880846;29;20189;-90
2020/12/11 06:56:40;;;;;;;23.83;12.53;;;2.60;99.90;;;;;;4879939;29;20192;-90
2020/12/11 06:59:23;;;;;;;34.07;14.07;;;1.00;99.90;;;;;;4879811;29;20188;-89
2020/12/11 07:01:56;;;;;;;26.90;11.60;;;1.10;99.90;;;;;;4878939;29;20230;-91
2020/12/11 07:04:22;;;;;;;32.30;13.20;;;2.60;99.90;;;;;;4863575;29;20181;-89
2020/12/11 07:06:53;;;;;;;24.37;11.57;;;2.60;99.90;;;;;;4863425;29;20597;-90
2020/12/11 07:09:20;;;;;;;24.03;12.30;;;2.10;99.90;;;;;;4880402;29;20205;-89
2020/12/11 07:11:46;;;;;;;25.47;12.90;;;2.10;99.90;;;;;;4863456;29;20190;-88
2020/12/11 07:14:13;;;;;;;30.00;12.57;;;3.50;99.90;;;;;;4864127;29;20191;-89
2020/12/11 07:16:40;;;;;;;32.83;13.27;;;2.70;99.90;;;;;;4880176;29;20189;-88
2020/12/11 07:19:06;;;;;;;21.33;11.13;;;2.40;99.90;;;;;;4879672;29;20197;-89
2020/12/11 07:21:37;;;;;;;24.27;11.17;;;3.00;99.90;;;;;;4879983;29;20196;-89
2020/12/11 07:24:04;;;;;;;28.53;12.73;;;1.20;99.90;;;;;;4879790;29;20182;-87
2020/12/11 07:26:30;;;;;;;28.73;13.80;;;1.10;99.90;;;;;;4879950;29;20437;-88
2020/12/11 07:29:07;;;;;;;28.80;12.67;;;3.10;99.90;;;;;;4879675;29;20258;-89
2020/12/11 07:31:46;;;;;;;24.80;12.93;;;2.10;99.90;;;;;;4863481;29;20201;-89
2020/12/11 07:34:15;;;;;;;25.63;11.87;;;1.20;99.90;;;;;;4863196;29;20189;-90
2020/12/11 07:36:44;;;;;;;27.50;12.97;;;1.20;99.90;;;;;;4863233;29;20184;-89
2020/12/11 07:39:18;;;;;;;29.53;13.43;;;2.40;99.90;;;;;;4879591;29;20213;-88
2020/12/11 07:41:45;;;;;;;27.33;13.03;;;2.50;99.90;;;;;;4879707;29;20174;-88
2020/12/11 07:44:23;;;;;;;47.70;22.30;;;1.10;99.90;;;;;;4862572;29;20520;-89
2020/12/11 07:46:49;;;;;;;50.03;20.93;;;1.20;99.90;;;;;;4879380;29;20713;-88
2020/12/11 07:49:15;;;;;;;38.63;17.93;;;2.30;99.90;;;;;;4879310;29;20223;-89
2020/12/11 07:51:48;;;;;;;34.57;16.07;;;2.70;99.90;;;;;;4863047;29;20190;-88
2020/12/11 07:54:14;;;;;;;38.83;18.10;;;1.90;99.90;;;;;;4878905;29;20652;-88
2020/12/11 07:56:40;;;;;;;27.50;14.43;;;2.90;99.90;;;;;;4879489;29;20185;-88
2020/12/11 07:59:13;;;;;;;29.13;15.13;;;2.90;99.90;;;;;;4879264;29;20225;-87
2020/12/11 08:01:40;;;;;;;32.40;15.97;;;1.20;99.90;;;;;;4862502;29;20180;-88
2020/12/11 08:04:06;;;;;;;30.80;15.80;;;1.20;99.90;;;;;;4866213;29;20186;-87
2020/12/11 08:06:33;;;;;;;43.70;21.47;;;1.20;99.90;;;;;;4880984;29;20188;-88
2020/12/11 08:09:10;;;;;;;36.20;17.67;;;1.20;99.90;;;;;;4878752;29;20265;-87
2020/12/11 08:11:35;;;;;;;39.67;17.77;;;2.50;99.90;;;;;;4861966;29;20179;-88
2020/12/11 08:14:04;;;;;;;40.20;18.57;;;2.80;99.90;;;;;;4861757;29;20193;-88
2020/12/11 08:16:30;;;;;;;27.20;15.13;;;3.50;99.90;;;;;;4878728;29;20691;-87
2020/12/11 08:19:01;;;;;;;28.07;14.73;;;2.40;99.90;;;;;;4879185;29;20181;-86
2020/12/11 08:21:31;;;;;;;31.87;13.63;;;1.30;99.90;;;;;;4862599;29;20269;-87
2020/12/11 08:23:57;;;;;;;33.03;15.33;;;2.60;99.90;;;;;;4879051;29;20234;-86
2020/12/11 08:26:24;;;;;;;37.03;17.33;;;1.40;99.90;;;;;;4847114;29;20220;-86
2020/12/11 08:29:03;;;;;;;43.20;19.50;;;3.50;99.90;;;;;;4878976;29;20646;-86
2020/12/11 08:31:28;;;;;;;31.70;15.40;;;3.50;99.90;;;;;;4862305;29;20443;-87
2020/12/11 08:34:09;;;;;;;32.27;14.53;;;1.50;99.90;;;;;;4862367;29;20245;-87
2020/12/11 08:36:38;;;;;;;32.73;15.43;;;1.50;99.90;;;;;;4878911;29;20215;-87
2020/12/11 08:39:13;;;;;;;33.50;16.20;;;2.20;99.90;;;;;;4861931;29;20190;-87
2020/12/11 08:41:52;;;;;;;31.77;15.30;;;3.50;99.90;;;;;;4862050;29;20239;-88
2020/12/11 08:49:54;;;;;;;44.60;19.80;;;2.90;99.90;;;;;;4878247;29;20297;-86
2020/12/11 08:52:20;;;;;;;38.67;18.27;;;3.80;99.90;;;;;;4860356;29;20196;-84
2020/12/11 08:54:47;;;;;;;31.10;16.27;;;1.60;99.90;;;;;;4878857;29;20267;-84
2020/12/11 08:57:13;;;;;;;36.67;16.37;;;1.90;99.90;;;;;;4863996;29;20619;-87
2020/12/11 08:59:39;;;;;;;44.87;20.10;;;3.20;99.90;;;;;;4882511;29;20584;-89
2020/12/11 09:02:05;;;;;;;58.27;25.67;;;2.30;99.90;;;;;;4849255;29;20185;-89
2020/12/11 09:04:30;;;;;;;55.77;22.77;;;3.00;99.90;;;;;;4865286;29;20222;-88
2020/12/11 09:06:56;;;;;;;31.70;14.73;;;1.70;99.90;;;;;;4880758;29;20572;-88
2020/12/11 09:09:22;;;;;;;24.63;12.57;;;3.40;99.90;;;;;;4880712;29;20212;-89
2020/12/11 09:11:48;;;;;;;24.23;12.43;;;1.70;99.90;;;;;;4880984;29;20185;-89
2020/12/11 09:14:14;;;;;;;24.07;12.10;;;1.80;99.90;;;;;;4864022;29;20192;-89
2020/12/11 09:16:40;;;;;;;25.20;12.33;;;2.90;99.90;;;;;;4880941;29;20723;-89
2020/12/11 09:19:06;;;;;;;25.03;11.27;;;3.90;99.90;;;;;;4881306;29;20184;-89
2020/12/11 09:21:32;;;;;;;23.17;11.17;;;2.80;99.90;;;;;;4866300;29;20178;-90
2020/12/11 09:23:57;;;;;;;34.00;13.60;;;1.90;99.90;;;;;;4882873;29;20266;-90
2020/12/11 09:26:26;;;;;;;34.10;14.27;;;3.60;99.90;;;;;;4882632;29;20297;-91
2020/12/11 09:28:59;;;;;;;28.40;14.10;;;3.10;99.90;;;;;;4882860;29;20175;-90
2020/12/11 09:31:26;;;;;;;25.90;13.77;;;2.90;99.90;;;;;;4882654;29;20172;-92
2020/12/11 09:33:52;;;;;;;36.13;16.40;;;2.00;99.90;;;;;;4850679;29;20624;-90
2020/12/11 09:36:18;;;;;;;56.67;22.73;;;2.00;99.90;;;;;;4866117;29;20209;-90
2020/12/11 09:38:43;;;;;;;27.67;14.13;;;3.30;99.90;;;;;;4882543;29;20209;-87
2020/12/11 09:41:13;;;;;;;25.73;12.33;;;2.10;99.90;;;;;;4849391;29;20182;-93
2020/12/11 09:46:40;;;;;;;25.30;11.80;;;3.50;99.90;;;;;;4880877;29;20300;-89
2020/12/11 09:56:41;;;;;;;29.47;12.17;;;3.90;99.90;;;;;;4881728;29;20194;-88
2020/12/11 09:59:17;;;;;;;28.33;12.37;;;4.10;99.90;;;;;;4864766;29;20245;-91
2020/12/11 10:04:20;;;;;;;90.37;28.10;;;2.10;99.90;;;;;;4865164;29;20221;-89
2020/12/11 10:06:46;;;;;;;30.50;13.20;;;2.10;99.90;;;;;;4865296;29;20642;-91
2020/12/11 10:09:12;;;;;;;33.97;13.60;;;2.30;99.90;;;;;;4881799;29;20666;-93
2020/12/11 10:11:38;;;;;;;30.07;13.87;;;2.10;99.90;;;;;;4867077;29;20211;-92
2020/12/11 10:14:28;;;;;;;36.57;14.50;;;2.10;99.90;;;;;;4868642;29;20221;-88
2020/12/11 10:16:56;;;;;;;40.73;13.43;;;2.10;99.90;;;;;;4882079;29;20674;-92
2020/12/11 10:19:22;;;;;;;28.93;13.53;;;3.70;99.90;;;;;;4862885;29;20626;-91
2020/12/11 10:21:49;;;;;;;30.80;12.43;;;2.10;99.90;;;;;;4881387;29;20288;-90
2020/12/11 10:24:16;;;;;;;38.33;13.97;;;2.20;99.90;;;;;;4864581;29;20197;-90
2020/12/11 10:26:42;;;;;;;31.90;13.60;;;3.20;99.90;;;;;;4865060;29;20200;-90
2020/12/11 10:29:08;;;;;;;35.67;14.93;;;2.70;99.90;;;;;;4864863;29;20218;-92
2020/12/11 10:31:34;;;;;;;38.37;16.17;;;4.10;99.90;;;;;;4874116;29;20186;-92
2020/12/11 10:34:00;;;;;;;40.07;15.03;;;2.20;99.90;;;;;;4881864;29;20290;-94
2020/12/11 10:36:33;;;;;;;38.40;16.00;;;2.20;99.90;;;;;;4850390;29;20674;-89
2020/12/11 10:38:59;;;;;;;35.07;15.70;;;3.10;99.90;;;;;;4863565;29;20240;-95
2020/12/11 10:41:25;;;;;;;39.10;15.83;;;4.50;99.90;;;;;;4883692;29;20186;-96
2020/12/11 10:43:52;;;;;;;40.97;16.80;;;3.10;99.90;;;;;;4864544;29;20198;-91
2020/12/11 10:46:18;;;;;;;41.70;16.57;;;4.20;99.90;;;;;;4864374;29;20252;-92
2020/12/11 10:48:44;;;;;;;41.53;17.70;;;2.20;99.90;;;;;;4864514;29;20194;-91
2020/12/11 10:51:11;;;;;;;48.10;20.17;;;2.50;99.90;;;;;;4864250;29;20689;-92
2020/12/11 10:53:37;;;;;;;63.13;24.90;;;2.20;99.90;;;;;;4866478;29;20194;-91
2020/12/11 10:56:07;;;;;;;64.97;24.57;;;2.20;99.90;;;;;;4864748;29;20185;-89
2020/12/11 10:58:33;;;;;;;63.97;25.57;;;3.40;99.90;;;;;;4865980;29;20223;-92
2020/12/11 11:01:01;;;;;;;78.60;29.33;;;3.30;99.90;;;;;;4864864;29;20217;-91
2020/12/11 11:03:28;;;;;;;76.37;28.77;;;4.30;99.90;;;;;;4848712;29;20192;-92
2020/12/11 11:05:55;;;;;;;66.83;26.53;;;2.40;99.90;;;;;;4849103;29;20196;-93
2020/12/11 11:08:22;;;;;;;55.60;21.97;;;2.50;99.90;;;;;;4863882;29;20197;-92
2020/12/11 11:10:49;;;;;;;63.07;24.43;;;2.40;99.90;;;;;;4864714;29;20413;-91
2020/12/11 11:13:46;;;;;;;53.83;21.20;;;3.20;99.90;;;;;;4866510;29;20192;-95
2020/12/11 11:16:05;;;;;;;84.20;30.17;;;2.50;99.90;;;;;;4867459;29;20200;-92
2020/12/11 11:21:47;;;;;;;85.10;29.17;;;3.30;99.90;;;;;;4872316;29;20199;-94
2020/12/11 11:27:09;;;;;;;47.03;18.47;;;3.40;99.90;;;;;;4869083;29;20289;-93
2020/12/11 11:29:34;;;;;;;47.50;19.97;;;3.30;99.90;;;;;;4864716;29;20202;-91
2020/12/11 11:32:00;;;;;;;35.63;16.87;;;4.70;99.90;;;;;;4864583;29;20253;-92
2020/12/11 11:34:25;;;;;;;49.50;21.47;;;2.80;99.90;;;;;;4862851;29;20293;-91
2020/12/11 11:36:52;;;;;;;66.23;22.27;;;2.70;99.90;;;;;;4862809;29;20189;-94
2020/12/11 11:39:18;;;;;;;43.83;16.37;;;4.30;99.90;;;;;;4879957;29;20712;-92
2020/12/11 11:41:47;;;;;;;44.93;17.97;;;2.60;99.90;;;;;;4863857;29;20202;-92
2020/12/11 11:46:47;;;;;;;52.70;21.60;;;3.90;99.90;;;;;;4879708;29;20229;-89
2020/12/11 11:49:16;;;;;;;37.97;17.57;;;2.60;99.90;;;;;;4863159;29;20694;-88
2020/12/11 11:52:13;;;;;;;33.73;15.00;;;2.70;99.90;;;;;;4872000;29;20277;-93
2020/12/11 11:54:28;;;;;;;37.07;18.47;;;3.30;99.90;;;;;;4880588;29;20216;-93
2020/12/11 11:56:57;;;;;;;40.97;20.03;;;2.70;99.90;;;;;;4862835;29;20664;-87
2020/12/11 11:59:23;;;;;;;43.40;18.00;;;2.50;99.90;;;;;;4864417;29;20190;-95
2020/12/11 12:01:52;;;;;;;44.13;18.43;;;2.50;99.90;;;;;;4849506;29;20194;-94
2020/12/11 12:04:18;;;;;;;37.00;17.60;;;2.50;99.90;;;;;;4863214;29;20182;-93
2020/12/11 12:06:44;;;;;;;41.83;19.70;;;2.50;99.90;;;;;;4864242;29;20212;-91
2020/12/11 12:09:09;;;;;;;47.93;20.60;;;3.90;99.90;;;;;;4863140;29;20222;-89
2020/12/11 12:11:35;;;;;;;41.27;19.17;;;2.50;99.90;;;;;;4846701;29;20268;-90
2020/12/11 12:14:01;;;;;;;47.03;19.73;;;2.50;99.90;;;;;;4847375;29;20234;-90
2020/12/11 12:16:26;;;;;;;44.47;21.20;;;2.60;99.90;;;;;;4862295;29;20656;-89
2020/12/11 12:18:55;;;;;;;40.50;20.37;;;2.50;99.90;;;;;;4879308;29;20230;-87
2020/12/11 12:21:51;;;;;;;40.93;18.10;;;3.80;99.90;;;;;;4854819;29;20547;-87
2020/12/11 12:29:36;;;;;;;40.93;18.90;;;3.00;99.90;;;;;;4880333;29;20559;-89
2020/12/11 12:32:12;;;;;;;42.73;19.30;;;2.60;99.90;;;;;;4848210;29;20272;-89
2020/12/11 12:45:00;;;;;;;46.47;19.77;;;3.00;99.90;;;;;;4848124;29;20190;-87
2020/12/11 12:47:25;;;;;;;47.57;21.40;;;3.30;99.90;;;;;;4861622;29;20636;-86
2020/12/11 12:49:51;;;;;;;50.30;21.07;;;3.30;99.90;;;;;;4878470;29;20213;-86
2020/12/11 12:52:17;;;;;;;43.63;19.17;;;2.90;99.90;;;;;;4861610;29;20686;-86
2020/12/11 12:54:43;;;;;;;50.00;20.43;;;2.80;99.90;;;;;;4878584;29;20647;-88
2020/12/11 12:57:16;;;;;;;41.83;18.93;;;2.80;99.90;;;;;;4862063;29;20201;-87
2020/12/11 13:07:29;;;;;;;44.30;18.83;;;4.10;99.90;;;;;;4862747;29;20193;-91
2020/12/11 13:09:54;;;;;;;53.00;22.90;;;3.10;99.90;;;;;;4878508;29;20210;-88
2020/12/11 13:12:24;;;;;;;48.70;21.87;;;2.90;99.90;;;;;;4861599;29;20190;-91
2020/12/11 13:14:49;;;;;;;50.43;22.47;;;2.80;99.90;;;;;;4877137;29;20276;-88
2020/12/11 13:17:15;;;;;;;52.47;24.47;;;2.80;99.90;;;;;;4858542;29;20313;-87
2020/12/11 13:19:41;;;;;;;64.77;26.53;;;2.90;99.90;;;;;;4875093;29;20194;-88
2020/12/11 13:27:35;;;;;;;86.13;34.50;;;2.90;99.90;;;;;;4862353;29;20556;-88
2020/12/11 13:30:01;;;;;;;119.23;44.77;;;2.80;99.90;;;;;;4861948;29;20218;-88
2020/12/11 13:32:30;;;;;;;116.53;42.27;;;2.90;99.90;;;;;;4860802;29;20204;-88
2020/12/11 13:34:56;;;;;;;123.47;45.90;;;2.80;99.90;;;;;;4877447;29;20227;-89
2020/12/11 13:37:23;;;;;;;127.87;45.17;;;4.60;99.90;;;;;;4861134;29;20233;-89